Time;durP1;ratioP1;P1;durP2;ratioP2;P2;SDS_P1;SDS_P2;PMS_P1;PMS_P2;Temp;Humidity;BMP_temperature;BMP_pressure;BME280_temperature;BME280_humidity;BME280_pressure;Samples;Min_cycle;Max_cycle;Signal;HPM_P1;HPM_P2
2022/06/25 00:00:59;;;;;;;;;;;22.50;62.00;;;;;;5029721;28;20025;-96
2022/06/25 00:03:25;;;;;;;;;;;22.40;63.00;;;;;;5029790;28;19950;-96
2022/06/25 00:05:51;;;;;;;;;;;22.30;63.40;;;;;;5029131;28;19942;-96
2022/06/25 00:08:17;;;;;;;;;;;22.30;63.30;;;;;;5030034;28;19944;-96
2022/06/25 00:10:43;;;;;;;;;;;22.20;63.30;;;;;;5032801;28;19943;-96
2022/06/25 00:13:09;;;;;;;;;;;22.20;63.20;;;;;;5035380;28;19952;-96
2022/06/25 00:15:35;;;;;;;;;;;22.10;63.50;;;;;;5036063;28;19969;-96
2022/06/25 00:18:05;;;;;;;;;;;22.00;64.10;;;;;;5035955;28;19979;-96
2022/06/25 00:20:31;;;;;;;;;;;22.00;65.90;;;;;;5035332;28;19966;-96
2022/06/25 00:22:58;;;;;;;;;;;21.80;64.20;;;;;;5036168;28;20021;-95
2022/06/25 00:25:25;;;;;;;;;;;21.80;64.00;;;;;;5036088;28;19959;-96
2022/06/25 00:27:55;;;;;;;;;;;21.80;63.90;;;;;;5035616;28;19971;-96
2022/06/25 00:30:24;;;;;;;;;;;21.70;64.30;;;;;;5036203;28;19979;-96
2022/06/25 00:32:51;;;;;;;;;;;21.70;64.90;;;;;;5036198;28;19973;-96
2022/06/25 00:35:17;;;;;;;;;;;21.80;63.90;;;;;;5035752;28;19950;-96
2022/06/25 00:37:44;;;;;;;;;;;21.70;63.90;;;;;;5036284;28;19947;-96
2022/06/25 00:40:15;;;;;;;;;;;21.70;64.30;;;;;;5036287;28;19943;-96
2022/06/25 00:42:45;;;;;;;;;;;21.70;64.50;;;;;;5035996;28;19954;-96
2022/06/25 00:45:11;;;;;;;;;;;21.60;65.00;;;;;;5035439;28;19924;-96
2022/06/25 00:47:38;;;;;;;;;;;21.50;64.80;;;;;;5036493;28;19949;-96
2022/06/25 00:50:05;;;;;;;;;;;21.50;65.10;;;;;;5035796;28;19949;-96
2022/06/25 00:52:41;;;;;;;;;;;21.40;65.10;;;;;;5034682;28;19960;-96
2022/06/25 00:55:11;;;;;;;;;;;21.30;64.70;;;;;;5034654;28;19944;-96
2022/06/25 00:57:41;;;;;;;;;;;21.30;65.50;;;;;;5036657;28;20402;-96
2022/06/25 01:00:09;;;;;;;;;;;21.30;65.30;;;;;;5035675;28;19944;-96
2022/06/25 01:02:39;;;;;;;;;;;21.30;65.70;;;;;;5036352;28;19941;-96
2022/06/25 01:05:09;;;;;;;;;;;21.30;65.40;;;;;;5036134;28;19953;-96
2022/06/25 01:07:36;;;;;;;;;;;21.20;65.20;;;;;;5036308;28;19942;-96
2022/06/25 01:10:04;;;;;;;;;;;21.30;65.80;;;;;;5036284;28;19955;-96
2022/06/25 01:12:30;;;;;;;;;;;21.30;65.00;;;;;;5033773;28;19960;-96
2022/06/25 01:15:09;;;;;;;;;;;21.20;64.70;;;;;;5034091;28;19947;-96
2022/06/25 01:17:36;;;;;;;;;;;21.00;65.70;;;;;;5035492;28;19993;-95
2022/06/25 01:20:06;;;;;;;;;;;20.90;66.70;;;;;;5035081;28;19955;-96
2022/06/25 01:22:32;;;;;;;;;;;20.80;66.00;;;;;;5034268;28;19940;-96
2022/06/25 01:24:59;;;;;;;;;;;20.70;66.50;;;;;;5030639;28;19983;-96
2022/06/25 01:27:24;;;;;;;;;;;20.60;66.60;;;;;;5023156;28;19948;-96
2022/06/25 01:29:50;;;;;;;;;;;20.50;71.20;;;;;;5025037;28;20034;-96
2022/06/25 01:32:16;;;;;;;;;;;20.30;73.50;;;;;;5024154;28;19970;-96
2022/06/25 01:34:42;;;;;;;;;;;20.30;72.10;;;;;;5024209;28;19940;-96
2022/06/25 01:37:09;;;;;;;;;;;20.30;70.50;;;;;;5034397;28;19982;-96
2022/06/25 01:39:44;;;;;;;;;;;20.30;70.90;;;;;;5037707;28;19998;-96
2022/06/25 01:42:58;;;;;;;;;;;20.30;69.80;;;;;;5035054;28;19971;-96
2022/06/25 01:45:06;;;;;;;;;;;20.30;69.80;;;;;;5037493;28;19938;-96
2022/06/25 01:47:34;;;;;;;;;;;20.30;69.70;;;;;;5022972;28;19942;-96
2022/06/25 01:50:12;;;;;;;;;;;20.30;69.00;;;;;;5020199;28;19953;-96
2022/06/25 01:52:50;;;;;;;;;;;20.30;68.80;;;;;;5022538;28;19981;-96
2022/06/25 01:55:18;;;;;;;;;;;20.30;69.00;;;;;;5038355;28;19989;-96
2022/06/25 01:57:48;;;;;;;;;;;20.20;68.50;;;;;;5036687;28;19926;-96
2022/06/25 02:00:18;;;;;;;;;;;20.20;68.00;;;;;;5021664;28;19933;-96
2022/06/25 02:03:02;;;;;;;;;;;20.20;67.90;;;;;;5037491;28;19926;-96
2022/06/25 02:08:17;;;;;;;;;;;19.90;71.60;;;;;;5037318;28;19984;-96
2022/06/25 02:10:46;;;;;;;;;;;19.60;71.30;;;;;;5037400;28;20386;-96
2022/06/25 02:13:15;;;;;;;;;;;19.60;70.60;;;;;;5036881;28;19927;-96
2022/06/25 02:15:44;;;;;;;;;;;19.60;69.90;;;;;;5035751;28;20398;-96
2022/06/25 02:18:16;;;;;;;;;;;19.70;70.10;;;;;;5036844;28;19928;-96
2022/06/25 02:20:47;;;;;;;;;;;19.80;69.70;;;;;;5034374;28;19932;-96
2022/06/25 02:23:28;;;;;;;;;;;19.90;69.70;;;;;;5038453;28;19943;-96
2022/06/25 02:26:01;;;;;;;;;;;19.80;71.10;;;;;;5037339;28;20054;-96
2022/06/25 02:28:28;;;;;;;;;;;19.50;72.40;;;;;;5035175;28;19953;-96
2022/06/25 02:30:56;;;;;;;;;;;19.30;72.20;;;;;;5036642;28;19976;-96
2022/06/25 02:33:28;;;;;;;;;;;19.10;73.40;;;;;;5036990;28;19945;-96
2022/06/25 02:35:55;;;;;;;;;;;19.10;73.10;;;;;;5035578;28;19930;-96
2022/06/25 02:38:22;;;;;;;;;;;19.00;73.60;;;;;;5034859;28;19971;-96
2022/06/25 02:40:55;;;;;;;;;;;18.90;74.40;;;;;;5036409;28;19948;-96
2022/06/25 02:43:21;;;;;;;;;;;18.90;74.60;;;;;;5036240;28;20002;-96
2022/06/25 02:46:00;;;;;;;;;;;18.90;73.30;;;;;;5019373;28;19934;-96
2022/06/25 02:48:28;;;;;;;;;;;19.00;74.90;;;;;;5036715;28;19947;-96
2022/06/25 02:51:02;;;;;;;;;;;19.10;75.70;;;;;;5037344;28;19953;-96
2022/06/25 02:53:29;;;;;;;;;;;19.20;75.90;;;;;;5035186;28;19938;-96
2022/06/25 02:58:54;;;;;;;;;;;18.80;76.90;;;;;;5029434;28;20033;-96
2022/06/25 03:01:21;;;;;;;;;;;18.50;79.40;;;;;;5027845;28;19979;-96
2022/06/25 03:03:47;;;;;;;;;;;18.50;81.00;;;;;;5028283;28;19946;-96
2022/06/25 03:06:16;;;;;;;;;;;18.50;79.70;;;;;;5034306;28;19945;-96
2022/06/25 03:08:48;;;;;;;;;;;18.60;79.30;;;;;;5035829;28;19955;-96
2022/06/25 03:11:16;;;;;;;;;;;18.60;78.70;;;;;;5036435;28;19954;-96
2022/06/25 03:13:46;;;;;;;;;;;18.80;78.70;;;;;;5019204;28;19938;-96
2022/06/25 03:16:14;;;;;;;;;;;18.70;77.70;;;;;;5037141;28;19990;-96
2022/06/25 03:18:53;;;;;;;;;;;18.70;77.60;;;;;;5037656;28;19946;-96
2022/06/25 03:21:21;;;;;;;;;;;18.60;76.70;;;;;;5037731;28;19944;-96
2022/06/25 03:23:54;;;;;;;;;;;18.40;77.50;;;;;;5037195;28;19950;-96
2022/06/25 03:26:28;;;;;;;;;;;18.30;78.00;;;;;;5037157;28;19969;-96
2022/06/25 03:37:52;;;;;;;;;;;18.50;76.90;;;;;;6063105;23;20899;-96
2022/06/25 04:04:48;;;;;;;;;;;18.50;78.00;;;;;;5284310;23;19989;-96
2022/06/25 04:07:16;;;;;;;;;;;18.60;78.10;;;;;;5038008;28;20083;-96
2022/06/25 04:09:47;;;;;;;;;;;18.60;78.60;;;;;;5038339;28;19950;-96
2022/06/25 04:12:14;;;;;;;;;;;18.60;78.50;;;;;;5037721;28;19968;-96
2022/06/25 04:14:41;;;;;;;;;;;18.70;79.00;;;;;;5039443;28;20003;-96
2022/06/25 04:17:28;;;;;;;;;;;18.70;78.90;;;;;;5040291;28;19970;-96
2022/06/25 04:20:07;;;;;;;;;;;18.50;79.20;;;;;;5040532;28;19949;-95
2022/06/25 04:23:04;;;;;;;;;;;18.40;78.80;;;;;;5038150;28;19926;-96
2022/06/25 04:59:18;;;;;;;;;;;19.60;81.10;;;;;;5610963;22;19972;-96
2022/06/25 05:01:50;;;;;;;;;;;19.80;80.90;;;;;;5019540;28;19968;-96
2022/06/25 05:04:21;;;;;;;;;;;20.00;79.90;;;;;;5018909;28;19953;-96
2022/06/25 05:06:50;;;;;;;;;;;20.10;80.00;;;;;;5018523;28;19951;-96
2022/06/25 05:09:16;;;;;;;;;;;20.10;79.90;;;;;;5016524;28;19949;-96
2022/06/25 05:11:44;;;;;;;;;;;20.30;77.50;;;;;;5016277;28;20027;-96
2022/06/25 05:14:11;;;;;;;;;;;20.40;76.80;;;;;;5016894;28;19952;-96
2022/06/25 05:16:38;;;;;;;;;;;20.60;75.90;;;;;;5016515;28;19947;-96
2022/06/25 05:19:05;;;;;;;;;;;20.80;74.40;;;;;;5015341;28;19973;-96
2022/06/25 05:21:33;;;;;;;;;;;21.00;69.20;;;;;;5015278;28;19946;-96
2022/06/25 05:24:04;;;;;;;;;;;21.20;68.70;;;;;;5018232;28;19950;-96
2022/06/25 05:26:33;;;;;;;;;;;21.30;68.90;;;;;;4998530;28;19979;-96
2022/06/25 05:29:04;;;;;;;;;;;21.30;68.40;;;;;;4999006;28;19950;-96
2022/06/25 05:31:36;;;;;;;;;;;21.40;68.90;;;;;;4999428;28;19982;-96
2022/06/25 05:34:05;;;;;;;;;;;21.50;68.90;;;;;;4999686;28;19953;-96
2022/06/25 05:36:37;;;;;;;;;;;21.60;67.90;;;;;;4994660;28;19932;-96
2022/06/25 05:39:09;;;;;;;;;;;21.70;67.30;;;;;;4994585;28;19944;-96
2022/06/25 05:41:42;;;;;;;;;;;21.80;67.20;;;;;;4998608;28;19960;-96
2022/06/25 05:44:11;;;;;;;;;;;21.80;66.30;;;;;;4994846;28;19979;-96
2022/06/25 05:46:54;;;;;;;;;;;21.90;66.30;;;;;;4997217;28;19945;-96
2022/06/25 05:49:28;;;;;;;;;;;21.90;66.30;;;;;;4999784;28;19945;-96
2022/06/25 05:52:00;;;;;;;;;;;22.10;66.10;;;;;;4998338;28;19960;-96
2022/06/25 05:54:31;;;;;;;;;;;22.10;66.70;;;;;;4983181;28;19980;-96
2022/06/25 05:57:07;;;;;;;;;;;22.20;65.70;;;;;;4999154;28;20471;-96
2022/06/25 05:59:43;;;;;;;;;;;22.20;65.60;;;;;;4996399;28;19985;-96
2022/06/25 06:02:31;;;;;;;;;;;22.30;65.40;;;;;;4997700;28;19969;-96
2022/06/25 06:05:24;;;;;;;;;;;22.40;64.40;;;;;;4998691;28;19942;-96
2022/06/25 06:08:14;;;;;;;;;;;22.50;63.80;;;;;;4998967;28;19952;-96
2022/06/25 06:10:42;;;;;;;;;;;22.60;64.20;;;;;;4998577;28;19952;-96
2022/06/25 06:13:18;;;;;;;;;;;22.70;64.50;;;;;;4999293;28;19947;-96
2022/06/25 06:15:46;;;;;;;;;;;22.70;64.70;;;;;;4992961;28;19948;-96
2022/06/25 06:18:15;;;;;;;;;;;22.80;63.30;;;;;;4995989;28;19947;-96
2022/06/25 06:20:42;;;;;;;;;;;23.00;63.20;;;;;;4996185;28;19947;-97
2022/06/25 06:23:10;;;;;;;;;;;23.00;62.30;;;;;;4995432;28;19944;-96
2022/06/25 06:25:37;;;;;;;;;;;23.20;62.50;;;;;;4995532;28;19960;-96
2022/06/25 06:28:07;;;;;;;;;;;23.30;62.30;;;;;;4995662;28;19953;-96
2022/06/25 06:30:38;;;;;;;;;;;23.30;63.30;;;;;;4998519;28;19981;-96
2022/06/25 06:33:07;;;;;;;;;;;23.40;63.30;;;;;;4998144;28;19981;-96
2022/06/25 06:35:48;;;;;;;;;;;23.50;63.00;;;;;;4999016;28;20028;-96
2022/06/25 06:38:19;;;;;;;;;;;23.50;62.80;;;;;;4998741;28;19954;-96
2022/06/25 06:40:51;;;;;;;;;;;23.50;61.60;;;;;;4998805;28;19956;-96
2022/06/25 06:43:32;;;;;;;;;;;23.60;61.80;;;;;;4998558;28;19943;-96
2022/06/25 06:46:03;;;;;;;;;;;23.60;62.30;;;;;;4997666;28;19927;-96
2022/06/25 06:48:32;;;;;;;;;;;23.70;60.70;;;;;;4998388;28;19955;-96
2022/06/25 06:51:07;;;;;;;;;;;23.70;60.00;;;;;;4997706;28;19950;-96
2022/06/25 06:53:46;;;;;;;;;;;23.80;60.40;;;;;;4998867;28;19945;-96
2022/06/25 06:56:15;;;;;;;;;;;23.90;58.40;;;;;;4997909;28;19931;-96
2022/06/25 06:58:46;;;;;;;;;;;24.00;58.70;;;;;;4996849;28;20048;-96
2022/06/25 07:01:14;;;;;;;;;;;24.00;58.80;;;;;;4997271;28;19935;-96
2022/06/25 07:03:57;;;;;;;;;;;24.10;57.70;;;;;;5001489;28;19947;-96
2022/06/25 07:06:25;;;;;;;;;;;24.20;58.00;;;;;;4999004;28;19979;-96
2022/06/25 07:08:56;;;;;;;;;;;24.20;58.00;;;;;;5002174;28;19957;-96
2022/06/25 07:11:29;;;;;;;;;;;24.30;57.40;;;;;;5001140;28;19970;-96
2022/06/25 07:13:56;;;;;;;;;;;24.40;56.90;;;;;;5001072;28;19944;-96
2022/06/25 07:16:27;;;;;;;;;;;24.50;57.30;;;;;;5001123;28;19927;-96
2022/06/25 07:18:58;;;;;;;;;;;24.60;57.50;;;;;;5000831;28;19992;-96
2022/06/25 07:21:28;;;;;;;;;;;24.70;57.80;;;;;;5002021;28;19961;-96
2022/06/25 07:24:00;;;;;;;;;;;24.70;58.10;;;;;;4999983;28;19942;-96
2022/06/25 07:26:27;;;;;;;;;;;24.80;57.90;;;;;;4998197;28;19960;-96
2022/06/25 07:28:54;;;;;;;;;;;24.90;57.30;;;;;;4998498;28;19944;-96
2022/06/25 07:31:21;;;;;;;;;;;25.00;57.60;;;;;;4998412;28;19976;-96
2022/06/25 07:33:48;;;;;;;;;;;25.10;57.30;;;;;;4999482;28;20016;-96
2022/06/25 07:36:18;;;;;;;;;;;25.20;57.30;;;;;;4998758;28;19946;-96
2022/06/25 07:38:49;;;;;;;;;;;25.30;57.80;;;;;;4998991;28;19951;-96
2022/06/25 07:41:21;;;;;;;;;;;25.40;58.50;;;;;;5000903;28;19953;-96
2022/06/25 07:43:52;;;;;;;;;;;25.50;58.60;;;;;;5000374;28;19930;-96
2022/06/25 07:46:22;;;;;;;;;;;25.50;58.20;;;;;;5001296;28;19944;-96
2022/06/25 07:48:49;;;;;;;;;;;25.60;59.50;;;;;;5000636;28;19958;-96
2022/06/25 07:54:04;;;;;;;;;;;25.70;59.70;;;;;;5001667;28;19950;-96
2022/06/25 07:56:37;;;;;;;;;;;25.80;59.60;;;;;;5001617;28;20004;-96
2022/06/25 07:59:16;;;;;;;;;;;25.90;59.70;;;;;;4985475;28;19990;-96
2022/06/25 08:01:46;;;;;;;;;;;25.90;59.40;;;;;;4998092;28;19980;-96
2022/06/25 08:04:13;;;;;;;;;;;26.00;58.70;;;;;;4999919;28;19944;-96
2022/06/25 08:06:41;;;;;;;;;;;26.10;58.10;;;;;;4997825;28;20014;-96
2022/06/25 08:09:14;;;;;;;;;;;26.10;57.80;;;;;;4998286;28;19925;-96
2022/06/25 08:11:44;;;;;;;;;;;26.20;57.20;;;;;;4999047;28;20016;-96
2022/06/25 08:14:18;;;;;;;;;;;26.20;57.20;;;;;;4997457;28;19957;-96
2022/06/25 08:16:47;;;;;;;;;;;26.20;58.90;;;;;;4983602;28;19949;-96
2022/06/25 08:19:19;;;;;;;;;;;26.30;60.20;;;;;;4997408;28;19952;-96
2022/06/25 08:21:48;;;;;;;;;;;26.50;57.20;;;;;;4999541;28;19953;-96
2022/06/25 08:24:20;;;;;;;;;;;26.50;57.80;;;;;;4997634;28;19987;-96
2022/06/25 08:26:46;;;;;;;;;;;26.50;57.20;;;;;;4993198;28;19969;-96
2022/06/25 08:29:12;;;;;;;;;;;26.60;57.70;;;;;;4988006;28;19941;-96
2022/06/25 08:31:38;;;;;;;;;;;26.70;56.50;;;;;;4987933;28;19961;-96
2022/06/25 08:34:03;;;;;;;;;;;26.80;58.10;;;;;;4986128;28;19945;-96
2022/06/25 08:36:29;;;;;;;;;;;26.90;56.00;;;;;;4993425;28;19966;-96
2022/06/25 08:38:55;;;;;;;;;;;26.90;56.00;;;;;;4994939;28;19947;-96
2022/06/25 08:41:22;;;;;;;;;;;26.90;57.00;;;;;;4993579;28;19956;-96
2022/06/25 08:43:48;;;;;;;;;;;26.90;57.40;;;;;;4991342;28;20464;-96
2022/06/25 08:46:19;;;;;;;;;;;26.90;55.40;;;;;;4997997;28;19938;-96
2022/06/25 08:48:49;;;;;;;;;;;26.90;57.40;;;;;;4997144;28;19949;-96
2022/06/25 08:51:18;;;;;;;;;;;27.00;56.40;;;;;;4997217;28;19944;-96
2022/06/25 08:53:45;;;;;;;;;;;26.90;55.50;;;;;;4997720;28;19942;-96
2022/06/25 08:56:18;;;;;;;;;;;27.00;56.80;;;;;;4999380;28;19942;-96
2022/06/25 08:58:45;;;;;;;;;;;27.00;56.00;;;;;;4997757;28;19992;-96
2022/06/25 09:01:14;;;;;;;;;;;27.00;56.10;;;;;;4998237;28;19961;-97
2022/06/25 09:03:47;;;;;;;;;;;27.00;56.20;;;;;;4998508;28;19948;-96
2022/06/25 09:06:21;;;;;;;;;;;27.00;54.60;;;;;;4998556;28;20013;-96
2022/06/25 09:09:05;;;;;;;;;;;27.20;57.40;;;;;;4997836;28;19946;-96
2022/06/25 09:11:48;;;;;;;;;;;27.20;57.00;;;;;;4996384;28;19989;-97
2022/06/25 09:14:25;;;;;;;;;;;27.40;55.80;;;;;;4998941;28;19942;-96
2022/06/25 09:16:56;;;;;;;;;;;27.50;54.80;;;;;;4996378;28;19979;-96
2022/06/25 09:19:33;;;;;;;;;;;27.50;53.90;;;;;;4996605;28;19943;-96
2022/06/25 09:22:00;;;;;;;;;;;27.50;53.60;;;;;;4996819;28;19941;-96
2022/06/25 09:24:44;;;;;;;;;;;27.50;54.80;;;;;;4996943;28;19942;-96
2022/06/25 09:27:10;;;;;;;;;;;27.60;55.50;;;;;;4996713;28;19965;-96
2022/06/25 09:29:40;;;;;;;;;;;27.70;54.20;;;;;;4997263;28;19945;-96
2022/06/25 09:32:07;;;;;;;;;;;27.60;51.90;;;;;;4995299;28;19962;-96
2022/06/25 09:34:34;;;;;;;;;;;27.60;51.70;;;;;;4994276;28;20012;-96
2022/06/25 09:37:17;;;;;;;;;;;27.60;54.40;;;;;;4996241;28;19942;-96
2022/06/25 09:39:44;;;;;;;;;;;27.60;53.40;;;;;;4996322;28;19954;-96
2022/06/25 09:42:20;;;;;;;;;;;27.50;52.00;;;;;;4995811;28;19956;-96
2022/06/25 09:44:46;;;;;;;;;;;27.50;52.50;;;;;;4994979;28;19950;-96
2022/06/25 09:47:13;;;;;;;;;;;27.70;53.30;;;;;;4995272;28;19925;-96
2022/06/25 09:49:41;;;;;;;;;;;27.70;53.20;;;;;;4996450;28;19927;-96
2022/06/25 09:52:08;;;;;;;;;;;27.90;51.70;;;;;;4996068;28;19965;-97
2022/06/25 09:54:38;;;;;;;;;;;28.00;50.70;;;;;;4996895;28;19935;-96
2022/06/25 09:57:06;;;;;;;;;;;28.10;51.20;;;;;;4996831;28;19946;-96
2022/06/25 09:59:35;;;;;;;;;;;28.20;52.40;;;;;;4996549;28;19989;-96
2022/06/25 10:02:06;;;;;;;;;;;28.20;51.50;;;;;;4996118;28;19984;-96
2022/06/25 10:04:35;;;;;;;;;;;28.20;50.60;;;;;;4995466;28;19972;-96
2022/06/25 10:07:07;;;;;;;;;;;28.20;50.10;;;;;;5007007;28;20559;-96
2022/06/25 10:09:36;;;;;;;;;;;28.30;49.50;;;;;;4994343;28;19953;-96
2022/06/25 10:12:06;;;;;;;;;;;28.30;51.10;;;;;;4993478;28;19977;-96
2022/06/25 10:14:34;;;;;;;;;;;28.30;49.20;;;;;;4995633;28;19981;-96
2022/06/25 10:17:03;;;;;;;;;;;28.40;48.80;;;;;;4993617;28;19948;-96
2022/06/25 10:19:31;;;;;;;;;;;28.50;48.60;;;;;;4994152;28;19989;-96
2022/06/25 10:21:58;;;;;;;;;;;28.60;50.20;;;;;;4992739;28;19972;-96
2022/06/25 10:24:27;;;;;;;;;;;28.70;48.90;;;;;;4992714;28;20004;-96
2022/06/25 10:26:54;;;;;;;;;;;28.80;47.50;;;;;;4992963;28;19957;-96
2022/06/25 10:29:31;;;;;;;;;;;28.80;49.10;;;;;;4992858;28;19969;-96
2022/06/25 10:32:13;;;;;;;;;;;29.00;47.90;;;;;;4992906;28;19961;-96
2022/06/25 10:34:54;;;;;;;;;;;29.00;47.60;;;;;;4992572;28;19950;-96
2022/06/25 10:37:21;;;;;;;;;;;29.00;45.90;;;;;;4992973;28;19928;-96
2022/06/25 10:39:54;;;;;;;;;;;29.00;45.60;;;;;;4995602;28;19950;-95
2022/06/25 10:45:05;;;;;;;;;;;29.20;48.50;;;;;;4993310;28;19945;-96
2022/06/25 10:47:50;;;;;;;;;;;29.30;46.50;;;;;;4991904;28;19954;-96
2022/06/25 10:50:22;;;;;;;;;;;29.30;48.80;;;;;;4990219;28;20431;-96
2022/06/25 10:53:03;;;;;;;;;;;29.40;43.90;;;;;;4988662;28;19959;-96
2022/06/25 10:55:37;;;;;;;;;;;29.50;46.40;;;;;;4988678;28;19947;-96
2022/06/25 10:58:14;;;;;;;;;;;29.60;44.50;;;;;;4990054;28;19956;-96
2022/06/25 11:00:47;;;;;;;;;;;29.60;45.50;;;;;;4993433;28;19988;-96
2022/06/25 11:03:16;;;;;;;;;;;29.70;46.60;;;;;;4991056;28;19948;-96
2022/06/25 11:05:47;;;;;;;;;;;29.70;45.30;;;;;;4993185;28;19951;-96
2022/06/25 11:08:13;;;;;;;;;;;29.80;43.60;;;;;;4992201;28;19956;-96
2022/06/25 11:10:40;;;;;;;;;;;29.80;43.40;;;;;;4992800;28;19973;-96
2022/06/25 11:13:07;;;;;;;;;;;29.90;42.90;;;;;;4992684;28;19976;-96
2022/06/25 11:15:44;;;;;;;;;;;30.00;43.10;;;;;;4994969;28;19946;-96
2022/06/25 11:18:10;;;;;;;;;;;30.20;44.10;;;;;;4993099;28;19947;-96
2022/06/25 11:20:37;;;;;;;;;;;30.20;42.40;;;;;;4994690;28;19942;-96
2022/06/25 11:23:04;;;;;;;;;;;30.20;42.00;;;;;;4993649;28;19950;-96
2022/06/25 11:28:48;;;;;;;;;;;30.40;43.10;;;;;;4993145;28;20050;-96
2022/06/25 11:31:14;;;;;;;;;;;30.60;42.00;;;;;;4990640;28;19947;-96
2022/06/25 11:33:40;;;;;;;;;;;30.60;40.40;;;;;;4990213;28;19951;-96
2022/06/25 11:36:14;;;;;;;;;;;30.70;41.90;;;;;;4988801;28;19942;-96
2022/06/25 11:38:40;;;;;;;;;;;30.80;40.30;;;;;;4990592;28;20010;-96
2022/06/25 11:41:06;;;;;;;;;;;31.00;41.40;;;;;;4987849;28;19956;-96
2022/06/25 11:43:34;;;;;;;;;;;31.20;43.30;;;;;;4989122;28;19948;-96
2022/06/25 11:46:01;;;;;;;;;;;31.40;41.10;;;;;;4990448;28;20474;-96
2022/06/25 11:48:28;;;;;;;;;;;31.30;39.20;;;;;;4993374;28;20063;-96
2022/06/25 11:51:01;;;;;;;;;;;31.40;38.20;;;;;;4997729;28;19947;-96
2022/06/25 11:53:28;;;;;;;;;;;31.60;37.60;;;;;;4996486;28;19992;-96
2022/06/25 11:55:57;;;;;;;;;;;31.60;37.70;;;;;;4997800;28;19943;-96
2022/06/25 11:58:26;;;;;;;;;;;31.70;36.50;;;;;;4998465;28;19943;-96
2022/06/25 12:00:54;;;;;;;;;;;31.90;37.40;;;;;;4996153;28;20020;-96
2022/06/25 12:03:22;;;;;;;;;;;32.00;38.70;;;;;;4996161;28;19945;-96
2022/06/25 12:05:49;;;;;;;;;;;32.30;38.20;;;;;;4995331;28;19996;-96
2022/06/25 12:08:15;;;;;;;;;;;32.40;37.10;;;;;;4991998;28;20003;-96
2022/06/25 12:10:42;;;;;;;;;;;32.50;36.40;;;;;;4991254;28;19941;-96
2022/06/25 12:13:08;;;;;;;;;;;32.70;38.80;;;;;;4990772;28;19969;-96
2022/06/25 12:15:35;;;;;;;;;;;32.70;33.70;;;;;;4995906;28;19951;-96
2022/06/25 12:18:05;;;;;;;;;;;33.00;34.50;;;;;;4995632;28;20014;-96
2022/06/25 12:20:31;;;;;;;;;;;33.10;32.90;;;;;;4995657;28;20313;-96
2022/06/25 12:22:57;;;;;;;;;;;32.90;31.20;;;;;;4993829;28;19945;-96
2022/06/25 12:25:35;;;;;;;;;;;32.80;30.80;;;;;;4992826;28;19998;-96
2022/06/25 12:28:01;;;;;;;;;;;32.90;32.10;;;;;;4995786;28;19944;-96
2022/06/25 12:30:28;;;;;;;;;;;33.10;29.90;;;;;;4995746;28;19947;-96
2022/06/25 12:32:57;;;;;;;;;;;33.40;30.60;;;;;;4996462;28;19961;-96
2022/06/25 12:35:25;;;;;;;;;;;33.80;31.30;;;;;;4997466;28;19943;-96
2022/06/25 12:38:01;;;;;;;;;;;33.80;29.90;;;;;;4995863;28;19951;-96
2022/06/25 12:40:28;;;;;;;;;;;33.70;29.10;;;;;;4997520;28;19946;-96
2022/06/25 12:42:55;;;;;;;;;;;34.20;28.90;;;;;;4997996;28;19948;-96
2022/06/25 12:45:25;;;;;;;;;;;35.00;29.40;;;;;;4997070;28;19951;-96
2022/06/25 12:47:52;;;;;;;;;;;34.70;30.10;;;;;;4996077;28;19948;-96
2022/06/25 12:50:22;;;;;;;;;;;34.60;28.40;;;;;;4997903;28;19936;-96
2022/06/25 12:52:49;;;;;;;;;;;34.80;29.10;;;;;;4997871;28;20034;-97
2022/06/25 12:55:20;;;;;;;;;;;34.90;30.00;;;;;;4994935;28;19940;-96
2022/06/25 12:57:46;;;;;;;;;;;34.40;28.50;;;;;;4993313;28;19941;-96
2022/06/25 13:00:18;;;;;;;;;;;34.30;29.80;;;;;;5017685;23;19982;-96
2022/06/25 13:02:48;;;;;;;;;;;34.20;30.30;;;;;;5014322;28;19991;-96
2022/06/25 13:05:18;;;;;;;;;;;34.50;29.30;;;;;;5017364;28;19967;-96
2022/06/25 13:07:47;;;;;;;;;;;34.60;29.60;;;;;;5018994;28;19984;-96
2022/06/25 13:10:14;;;;;;;;;;;35.20;28.50;;;;;;5016799;28;19951;-96
2022/06/25 13:12:43;;;;;;;;;;;35.60;28.00;;;;;;5018549;28;19975;-96
2022/06/25 13:15:09;;;;;;;;;;;36.40;27.70;;;;;;5012794;28;19943;-96
2022/06/25 13:17:35;;;;;;;;;;;37.10;26.30;;;;;;5010874;28;19949;-96
2022/06/25 13:20:02;;;;;;;;;;;37.30;27.00;;;;;;5010611;28;19960;-96
2022/06/25 13:22:28;;;;;;;;;;;37.90;26.50;;;;;;5011031;28;19947;-96
2022/06/25 13:24:54;;;;;;;;;;;38.30;26.80;;;;;;5011401;28;19942;-96
2022/06/25 13:27:20;;;;;;;;;;;38.20;24.20;;;;;;5011377;28;19989;-96
2022/06/25 13:29:46;;;;;;;;;;;38.60;26.60;;;;;;5013753;28;19951;-96
2022/06/25 13:32:16;;;;;;;;;;;38.70;24.30;;;;;;5014086;28;19960;-96
2022/06/25 13:34:48;;;;;;;;;;;38.40;24.20;;;;;;5017614;28;19981;-96
2022/06/25 13:37:36;;;;;;;;;;;39.30;23.20;;;;;;5003950;28;19950;-96
2022/06/25 13:42:57;;;;;;;;;;;40.50;21.60;;;;;;5776859;22;19964;-96
2022/06/25 13:45:27;;;;;;;;;;;40.50;24.60;;;;;;5017267;28;19947;-96
2022/06/25 13:48:00;;;;;;;;;;;41.00;22.10;;;;;;5016809;28;19931;-96
2022/06/25 13:50:29;;;;;;;;;;;41.60;20.80;;;;;;5016847;28;20015;-96
2022/06/25 13:52:58;;;;;;;;;;;40.60;22.30;;;;;;5017152;28;19965;-96
2022/06/25 13:55:40;;;;;;;;;;;40.40;23.40;;;;;;5018330;28;19956;-96
2022/06/25 14:11:10;;;;;;;;;;;44.10;19.60;;;;;;5799329;22;19980;-96
2022/06/25 14:13:40;;;;;;;;;;;42.60;18.50;;;;;;5016451;28;19938;-96
2022/06/25 14:16:16;;;;;;;;;;;42.00;20.30;;;;;;5017501;28;20026;-98
2022/06/25 14:18:48;;;;;;;;;;;43.00;19.30;;;;;;5018292;28;19953;-97
2022/06/25 14:21:29;;;;;;;;;;;43.20;18.90;;;;;;5015605;28;19950;-96
2022/06/25 14:24:09;;;;;;;;;;;43.30;18.80;;;;;;5018162;28;19994;-96
2022/06/25 14:26:40;;;;;;;;;;;43.10;21.50;;;;;;5016238;28;19946;-96
2022/06/25 14:29:34;;;;;;;;;;;43.10;19.20;;;;;;5018498;28;19975;-96
2022/06/25 14:32:05;;;;;;;;;;;43.30;19.90;;;;;;5014985;28;19959;-96
2022/06/25 14:34:31;;;;;;;;;;;42.10;17.50;;;;;;5012679;28;19953;-96
2022/06/25 14:42:26;;;;;;;;;;;39.90;19.50;;;;;;5011836;28;19961;-96
2022/06/25 14:44:52;;;;;;;;;;;39.20;20.00;;;;;;5011207;28;20321;-96
2022/06/25 14:47:19;;;;;;;;;;;39.40;20.70;;;;;;5013450;28;19972;-96
2022/06/25 14:49:45;;;;;;;;;;;40.10;21.90;;;;;;5010705;28;20371;-96
2022/06/25 14:52:11;;;;;;;;;;;39.60;21.00;;;;;;5010113;28;19988;-96
2022/06/25 14:54:37;;;;;;;;;;;39.00;21.30;;;;;;5009994;28;19950;-96
2022/06/25 14:57:03;;;;;;;;;;;39.00;21.40;;;;;;5009626;28;19945;-96
2022/06/25 14:59:29;;;;;;;;;;;38.80;21.60;;;;;;5006599;28;19972;-96
2022/06/25 15:01:55;;;;;;;;;;;38.80;21.90;;;;;;4997536;28;19946;-96
2022/06/25 15:04:20;;;;;;;;;;;39.20;23.40;;;;;;4995486;28;19949;-96
2022/06/25 15:06:46;;;;;;;;;;;39.30;22.30;;;;;;4995603;28;19942;-96
2022/06/25 15:09:11;;;;;;;;;;;39.90;21.10;;;;;;4995788;28;20032;-96
2022/06/25 15:11:37;;;;;;;;;;;39.10;22.40;;;;;;4996607;28;20470;-96
2022/06/25 15:14:02;;;;;;;;;;;38.60;23.50;;;;;;4995877;28;20411;-96
2022/06/25 15:16:28;;;;;;;;;;;38.10;25.60;;;;;;4996972;28;20058;-96
2022/06/25 15:18:54;;;;;;;;;;;38.20;26.60;;;;;;4995927;28;19976;-96
2022/06/25 15:21:20;;;;;;;;;;;38.40;26.20;;;;;;4997360;28;19940;-96
2022/06/25 15:23:46;;;;;;;;;;;38.40;26.30;;;;;;5000037;28;19942;-96
2022/06/25 15:26:11;;;;;;;;;;;38.80;25.90;;;;;;5002358;28;19982;-96
2022/06/25 15:28:37;;;;;;;;;;;38.10;26.10;;;;;;5002745;28;20002;-96
2022/06/25 15:31:02;;;;;;;;;;;37.20;26.00;;;;;;5005913;28;20464;-96
2022/06/25 15:33:28;;;;;;;;;;;37.30;27.50;;;;;;5007736;28;19970;-96
2022/06/25 15:35:55;;;;;;;;;;;37.30;27.50;;;;;;5006426;28;19944;-96
2022/06/25 15:38:20;;;;;;;;;;;37.10;27.20;;;;;;5006946;28;19937;-96
2022/06/25 15:40:46;;;;;;;;;;;36.90;27.70;;;;;;5007384;28;20012;-96
2022/06/25 15:43:11;;;;;;;;;;;37.00;28.50;;;;;;5004891;28;20357;-96
2022/06/25 15:45:37;;;;;;;;;;;36.70;27.50;;;;;;5002616;28;19946;-96
2022/06/25 15:48:03;;;;;;;;;;;36.20;28.70;;;;;;5001136;28;19938;-96
2022/06/25 15:50:28;;;;;;;;;;;35.60;28.80;;;;;;5000018;28;19946;-96
2022/06/25 15:52:54;;;;;;;;;;;35.30;28.60;;;;;;5000728;28;19969;-96
2022/06/25 15:55:20;;;;;;;;;;;35.50;30.20;;;;;;5001167;28;19945;-96
2022/06/25 15:57:45;;;;;;;;;;;35.30;28.30;;;;;;5003866;28;20315;-96
2022/06/25 16:00:12;;;;;;;;;;;35.60;29.40;;;;;;5003571;28;19946;-96
2022/06/25 16:02:38;;;;;;;;;;;35.60;27.00;;;;;;5003845;28;19940;-96
2022/06/25 16:05:03;;;;;;;;;;;35.40;27.60;;;;;;4999062;28;19955;-96
2022/06/25 16:07:29;;;;;;;;;;;34.70;28.40;;;;;;4998693;28;19943;-95
2022/06/25 16:09:55;;;;;;;;;;;35.00;28.40;;;;;;4997507;28;20061;-96
2022/06/25 16:12:21;;;;;;;;;;;35.10;27.80;;;;;;4996946;28;19974;-96
2022/06/25 16:14:46;;;;;;;;;;;35.30;28.80;;;;;;4997690;28;20048;-96